Saturday, November 18, 2017, 12:03 PM GMT
Back to Local

CWNC, Cobourg, Ont.

Location: , , Canada Lat: 43.95
Local Time: 12:03 PM GMT (12:03 GMT) Lon: -78.167
Time Zone: GMT Elev: 255 ft

Show me the last for .
Show Coded

Time T Td Feel RH Dir Speed Gust Alt SLP Vis Weather Sky Remarks
2017-11-18 11:00 43 31 37 62 130° 13 - - 29.65 0 None
2017-11-18 10:00 43 33 36 69 130° 13 - - 29.69 0 None
2017-11-18 09:00 42 34 36 70 140° 13 - - 29.73 0 None
2017-11-18 08:00 42 33 35 71 130° 15 - - 29.76 0 None
2017-11-18 07:00 41 31 34 67 130° 14 - - 29.80 0 None
2017-11-18 06:00 41 32 31 70 130° 14 21 - 29.85 0 Peak wind: 20 mph (18 kts) from 120° at 56 min
2017-11-18 05:00 40 31 33 67 150° 13 - - 29.90 0 None
2017-11-18 04:00 40 30 33 66 150° 13 - - 29.94 0 None
2017-11-18 03:00 39 30 31 70 160° 13 - - 29.98 0 None
2017-11-18 02:00 35 28 28 76 150° 8 - - 30.01 0 None
2017-11-18 01:00 31 23 - 71 70° 2 - - 30.04 0 None
2017-11-18 00:00 30 23 27 73 30° 3 - - 30.07 0 None
2017-11-17 23:00 33 22 - 64 40° 1 - - 30.09 0 None
2017-11-17 22:00 34 22 29 61 260° 6 - - 30.12 0 None
2017-11-17 21:00 34 26 27 70 240° 9 - - 30.14 0 None
2017-11-17 20:00 35 24 25 63 260° 10 17 - 30.16 0 None
2017-11-17 19:00 35 21 29 56 250° 8 - - 30.18 0 None
2017-11-17 18:00 35 15 29 45 260° 6 - - 30.19 0 None
2017-11-17 17:00 32 14 26 47 320° 6 - - 30.22 0 None
2017-11-17 16:00 30 14 23 51 330° 7 - - 30.25 0 None
2017-11-17 15:00 28 13 19 50 350° 10 - - 30.26 0 None
2017-11-17 14:00 26 12 13 53 350° 8 18 - 30.27 0 None
2017-11-17 13:00 25 15 16 64 330° 8 - - 30.26 0 None

Support USWX by starting your Amazon purchase here.